Impacts TAF Board
For situational awareness. Not to be used for flight planning purposes.
IDs:

KMCO - Orlando Intl, FL, US

Issued at 2052 UTC 18 Nov 2018
Updated at 2317 UTC 18 Nov 2018
Potential Impact None Slight Moderate High
Time<<19/12Z 19/13Z 19/14Z 19/15Z 19/16Z 19/17Z 19/18Z 19/19Z 19/20Z 19/21Z 19/22Z 19/23Z 20/00Z>>
Type PRVL PRVL PRVL PRVL PRVL PRVL PRVL PRVL PRVL PRVL PRVL PRVL
VIS >6 >6 >6 >6 >6 >6 >6 >6 >6 >6 >6 >6
CIG -- -- 250 250 250 250 250 250 250 250 250 250
Cover SCT SCT BKN BKN BKN BKN BKN BKN BKN BKN BKN BKN
FltCat VFR VFR VFR VFR VFR VFR VFR VFR VFR VFR VFR VFR
WX -- -- -- -- -- -- -- -- -- -- -- --
WDir VRB VRB 310 310 310 310 310 310 310 310 310 310
WSpd 3 3 5 5 5 5 5 5 5 5 5 5
WGst -- -- -- -- -- -- -- -- -- -- -- --
Raw TAF
KMCO 182052Z 1821/1924 07006KT P6SM SCT050 BKN080
  FM190200 VRB03KT P6SM FEW040 SCT250
  TEMPO 1910/1912 5SM BR
  FM191400 31005KT P6SM SCT040 BKN250


METAR Board
Radar Display
Forecast Discussion
For situational awareness. Not to be used for flight planning purposes.